createdAt,value
2022-12-05T00:00:57.644Z,55.60
2022-12-05T00:03:24.193Z,55.50
2022-12-05T00:05:50.763Z,55.10
2022-12-05T00:08:17.827Z,54.70
2022-12-05T00:10:44.425Z,54.60
2022-12-05T00:13:11.007Z,54.30
2022-12-05T00:15:41.014Z,54.00
2022-12-05T00:18:07.581Z,53.90
2022-12-05T00:20:34.224Z,54.80
2022-12-05T00:23:00.778Z,54.70
2022-12-05T00:25:27.686Z,54.50
2022-12-05T00:27:54.401Z,54.10
2022-12-05T00:30:20.975Z,54.20
2022-12-05T00:32:47.564Z,54.20
2022-12-05T00:35:14.129Z,54.20
2022-12-05T00:37:40.693Z,55.00
2022-12-05T00:40:07.571Z,55.00
2022-12-05T00:42:34.140Z,54.80
2022-12-05T00:45:00.707Z,54.40
2022-12-05T00:47:27.283Z,54.60
2022-12-05T00:49:53.848Z,54.50
2022-12-05T00:52:20.407Z,55.30
2022-12-05T00:54:47.288Z,54.90
2022-12-05T00:57:13.932Z,54.90
2022-12-05T00:59:40.520Z,54.70
2022-12-05T01:02:07.089Z,54.90
2022-12-05T01:04:33.638Z,54.30
2022-12-05T01:07:00.280Z,54.70
2022-12-05T01:09:27.118Z,54.50
2022-12-05T01:11:53.776Z,54.90
2022-12-05T01:14:21.358Z,54.30
2022-12-05T01:16:48.902Z,54.70
2022-12-05T01:19:17.400Z,54.80
2022-12-05T01:21:44.110Z,55.10
2022-12-05T01:24:11.522Z,55.10
2022-12-05T01:26:38.361Z,54.80
2022-12-05T01:29:05.375Z,54.40
2022-12-05T01:31:33.721Z,54.50
2022-12-05T01:34:01.610Z,55.20
2022-12-05T01:36:28.520Z,55.40
2022-12-05T01:38:55.743Z,55.20
2022-12-05T01:41:26.825Z,54.90
2022-12-05T01:43:58.992Z,54.60
2022-12-05T01:46:26.420Z,54.70
2022-12-05T01:48:55.308Z,55.00
2022-12-05T01:51:22.972Z,55.40
2022-12-05T01:53:49.559Z,55.00
2022-12-05T01:56:16.469Z,54.80
2022-12-05T01:58:43.934Z,54.30
2022-12-05T02:01:12.461Z,54.90
2022-12-05T02:03:40.517Z,55.20
2022-12-05T02:06:07.396Z,55.20
2022-12-05T02:08:33.998Z,55.20
2022-12-05T02:11:00.653Z,54.90
2022-12-05T02:13:27.194Z,55.10
2022-12-05T02:16:01.677Z,55.10
2022-12-05T02:18:34.076Z,55.20
2022-12-05T02:21:09.449Z,55.20
2022-12-05T02:23:38.820Z,55.00
2022-12-05T02:26:05.342Z,55.20
2022-12-05T02:28:38.021Z,55.00
2022-12-05T02:31:04.584Z,55.20
2022-12-05T02:33:51.477Z,55.30
2022-12-05T02:36:22.994Z,55.10
2022-12-05T02:39:02.877Z,54.90
2022-12-05T02:41:35.249Z,54.70
2022-12-05T02:44:24.883Z,54.60
2022-12-05T02:46:52.779Z,55.20
2022-12-05T02:49:22.041Z,55.20
2022-12-05T02:51:50.555Z,55.00
2022-12-05T02:54:19.895Z,55.10
2022-12-05T02:56:47.336Z,54.60
2022-12-05T02:59:18.472Z,55.20
2022-12-05T03:01:49.727Z,55.10
2022-12-05T03:04:16.972Z,54.90
2022-12-05T03:06:54.403Z,54.70
2022-12-05T03:09:26.802Z,54.90
2022-12-05T03:11:56.295Z,54.90
2022-12-05T03:14:25.215Z,55.00
2022-12-05T03:16:53.917Z,54.80
2022-12-05T03:19:23.543Z,54.70
2022-12-05T03:21:52.944Z,55.10
2022-12-05T03:24:19.614Z,54.80
2022-12-05T03:27:01.247Z,54.80
2022-12-05T03:29:36.701Z,55.00
2022-12-05T03:32:21.386Z,54.70
2022-12-05T03:34:52.412Z,54.50
2022-12-05T03:37:26.801Z,54.90
2022-12-05T03:40:00.988Z,55.00
2022-12-05T03:42:31.537Z,55.00
2022-12-05T03:45:01.321Z,54.80
2022-12-05T03:47:32.510Z,54.80
2022-12-05T03:50:02.297Z,54.80
2022-12-05T03:53:11.338Z,54.80
2022-12-05T03:55:33.539Z,54.80
2022-12-05T03:58:02.467Z,54.70
2022-12-05T04:00:32.266Z,54.80
2022-12-05T04:03:14.461Z,54.70
2022-12-05T04:05:49.640Z,55.00
2022-12-05T04:08:22.134Z,54.90
2022-12-05T04:10:50.435Z,54.60
2022-12-05T04:13:19.690Z,54.70
2022-12-05T04:16:07.650Z,54.60
2022-12-05T04:18:34.709Z,54.60
2022-12-05T04:21:21.578Z,54.60
2022-12-05T04:24:08.336Z,54.90
2022-12-05T04:26:36.582Z,54.70
2022-12-05T04:29:08.757Z,54.50
2022-12-05T04:31:40.748Z,54.70
2022-12-05T04:34:08.386Z,55.00
2022-12-05T04:36:46.903Z,54.50
2022-12-05T04:39:18.214Z,54.20
2022-12-05T04:41:51.421Z,54.20
2022-12-05T04:44:20.186Z,53.90
2022-12-05T04:46:47.709Z,53.90
2022-12-05T04:49:17.212Z,53.70
2022-12-05T04:51:45.342Z,54.50
2022-12-05T04:54:23.705Z,54.40
2022-12-05T04:56:52.395Z,54.10
2022-12-05T04:59:21.283Z,54.40
2022-12-05T05:01:53.639Z,54.20
2022-12-05T05:04:31.657Z,53.80
2022-12-05T05:06:58.363Z,54.10
2022-12-05T05:09:25.033Z,54.20
2022-12-05T05:11:51.739Z,53.80
2022-12-05T05:14:18.280Z,54.60
2022-12-05T05:16:44.907Z,54.30
2022-12-05T05:19:12.086Z,53.90
2022-12-05T05:21:40.469Z,54.20
2022-12-05T05:24:08.146Z,54.30
2022-12-05T05:26:36.413Z,54.20
2022-12-05T05:29:03.534Z,54.00
2022-12-05T05:31:30.224Z,54.40
2022-12-05T05:33:57.273Z,54.40
2022-12-05T05:36:24.772Z,53.90
2022-12-05T05:38:52.609Z,54.00
2022-12-05T05:41:20.501Z,54.10
2022-12-05T05:43:47.679Z,54.70
2022-12-05T05:46:15.336Z,54.20
2022-12-05T05:48:41.951Z,54.10
2022-12-05T05:51:09.720Z,54.00
2022-12-05T05:53:36.305Z,54.20
2022-12-05T05:56:07.108Z,54.20
2022-12-05T05:58:33.694Z,54.20
2022-12-05T06:01:10.810Z,54.00
2022-12-05T06:03:37.638Z,54.20
2022-12-05T06:06:05.670Z,54.10
2022-12-05T06:08:33.240Z,54.20
2022-12-05T06:10:59.905Z,54.10
2022-12-05T06:13:27.289Z,54.10
2022-12-05T06:15:53.940Z,54.10
2022-12-05T06:18:20.543Z,54.00
2022-12-05T06:20:56.946Z,54.00
2022-12-05T06:23:24.278Z,54.00
2022-12-05T06:25:51.746Z,54.00
2022-12-05T06:28:18.708Z,54.60
2022-12-05T06:30:45.300Z,53.90
2022-12-05T06:33:12.519Z,53.80
2022-12-05T06:35:39.362Z,54.00
2022-12-05T06:38:06.718Z,53.80
2022-12-05T06:40:33.580Z,54.00
2022-12-05T06:43:00.203Z,54.10
2022-12-05T06:45:26.787Z,53.80
2022-12-05T06:47:53.844Z,53.70
2022-12-05T06:50:20.377Z,53.60
2022-12-05T06:52:46.954Z,54.00
2022-12-05T06:55:13.508Z,53.80
2022-12-05T06:57:40.060Z,53.90
2022-12-05T07:00:25.472Z,53.70
2022-12-05T07:02:52.538Z,53.70
2022-12-05T07:05:19.651Z,53.70
2022-12-05T07:07:46.464Z,53.80
2022-12-05T07:10:13.424Z,53.90
2022-12-05T07:12:40.006Z,54.20
2022-12-05T07:15:06.797Z,53.80
2022-12-05T07:17:35.944Z,53.60
2022-12-05T07:20:03.017Z,53.80
2022-12-05T07:22:29.575Z,53.70
2022-12-05T07:24:56.157Z,53.60
2022-12-05T07:27:27.292Z,53.70
2022-12-05T07:29:54.428Z,53.70
2022-12-05T07:32:21.128Z,53.50
2022-12-05T07:34:52.138Z,53.60
2022-12-05T07:37:21.405Z,53.40
2022-12-05T07:39:50.276Z,53.30
2022-12-05T07:42:16.846Z,53.10
2022-12-05T07:44:43.411Z,53.40
2022-12-05T07:47:10.043Z,54.10
2022-12-05T07:49:36.972Z,53.80
2022-12-05T07:52:03.683Z,53.70
2022-12-05T07:54:30.294Z,53.60
2022-12-05T07:56:56.867Z,53.60
2022-12-05T07:59:23.404Z,53.40
2022-12-05T08:01:50.155Z,53.40
2022-12-05T08:04:17.153Z,53.40
2022-12-05T08:06:43.740Z,53.40
2022-12-05T08:09:10.313Z,53.60
2022-12-05T08:11:36.908Z,53.40
2022-12-05T08:14:04.949Z,53.30
2022-12-05T08:16:32.348Z,54.00
2022-12-05T08:19:00.380Z,53.30
2022-12-05T08:21:27.304Z,53.30
2022-12-05T08:23:53.980Z,53.40
2022-12-05T08:26:24.715Z,53.20
2022-12-05T08:28:55.733Z,53.30
2022-12-05T08:31:24.414Z,53.20
2022-12-05T08:33:57.300Z,53.30
2022-12-05T08:36:25.659Z,53.30
2022-12-05T08:38:55.932Z,53.20
2022-12-05T08:41:22.710Z,53.60
2022-12-05T08:43:49.252Z,53.80
2022-12-05T08:46:15.956Z,53.70
2022-12-05T08:48:42.601Z,53.40
2022-12-05T08:51:10.024Z,53.20
2022-12-05T08:53:42.559Z,53.40
2022-12-05T08:56:11.286Z,53.40
2022-12-05T08:58:38.049Z,53.00
2022-12-05T09:01:14.943Z,53.30
2022-12-05T09:03:47.546Z,53.30
2022-12-05T09:06:14.698Z,53.30
2022-12-05T09:08:42.079Z,53.30
2022-12-05T09:11:16.014Z,53.10
2022-12-05T09:13:42.774Z,53.10
2022-12-05T09:16:10.383Z,53.20
2022-12-05T09:18:37.020Z,53.10
2022-12-05T09:21:07.794Z,53.60
2022-12-05T09:23:34.484Z,53.20
2022-12-05T09:26:05.146Z,53.10
2022-12-05T09:28:32.515Z,53.30
2022-12-05T09:31:01.305Z,53.20
2022-12-05T09:33:32.141Z,53.30
2022-12-05T09:35:58.791Z,52.80
2022-12-05T09:38:25.349Z,53.00
2022-12-05T09:41:04.368Z,53.10
2022-12-05T09:43:36.931Z,52.90
2022-12-05T09:46:07.679Z,53.30
2022-12-05T09:48:34.302Z,53.30
2022-12-05T09:51:02.873Z,52.90
2022-12-05T09:53:33.997Z,53.20
2022-12-05T09:56:03.488Z,53.00
2022-12-05T09:58:38.286Z,53.10
2022-12-05T10:01:23.623Z,53.20
2022-12-05T10:04:09.253Z,53.00
2022-12-05T10:06:50.308Z,53.20
2022-12-05T10:09:35.700Z,53.20
2022-12-05T10:12:21.090Z,53.10
2022-12-05T10:14:51.558Z,53.00
2022-12-05T10:17:23.589Z,53.10
2022-12-05T10:19:52.684Z,52.90
2022-12-05T10:22:22.707Z,52.90
2022-12-05T10:24:52.601Z,53.20
2022-12-05T10:27:20.270Z,53.20
2022-12-05T10:30:05.648Z,52.90
2022-12-05T10:32:36.536Z,53.10
2022-12-05T10:35:21.694Z,53.20
2022-12-05T10:37:49.959Z,53.20
2022-12-05T10:40:16.857Z,53.20
2022-12-05T10:42:43.987Z,53.10
2022-12-05T10:45:21.505Z,53.20
2022-12-05T10:47:48.801Z,53.10
2022-12-05T10:50:35.640Z,53.30
2022-12-05T10:53:03.668Z,53.00
2022-12-05T10:56:28.246Z,53.20
2022-12-05T10:58:54.511Z,53.10
2022-12-05T11:01:21.898Z,53.00
2022-12-05T11:03:55.624Z,53.10
2022-12-05T11:06:26.093Z,53.00
2022-12-05T11:09:04.420Z,53.00
2022-12-05T11:11:35.358Z,53.00
2022-12-05T11:14:01.932Z,52.90
2022-12-05T11:16:28.632Z,52.70
2022-12-05T11:18:55.292Z,53.40
2022-12-05T11:21:21.966Z,53.40
2022-12-05T11:23:48.648Z,53.30
2022-12-05T11:26:35.669Z,53.50
2022-12-05T11:29:03.564Z,52.90
2022-12-05T11:31:31.133Z,52.90
2022-12-05T11:34:02.760Z,53.50
2022-12-05T11:36:44.309Z,53.40
2022-12-05T11:39:14.411Z,53.00
2022-12-05T11:41:56.265Z,53.30
2022-12-05T11:44:35.205Z,53.30
2022-12-05T11:47:22.893Z,53.50
2022-12-05T11:49:49.394Z,53.50
2022-12-05T11:52:22.196Z,53.30
2022-12-05T11:55:16.805Z,53.30
2022-12-05T11:57:55.528Z,53.30
2022-12-05T12:00:45.421Z,53.30
2022-12-05T12:03:50.801Z,53.20
2022-12-05T12:06:20.637Z,53.40
2022-12-05T12:09:02.327Z,53.20
2022-12-05T12:11:28.888Z,53.10
2022-12-05T12:14:14.255Z,53.30
2022-12-05T12:16:40.908Z,53.20
2022-12-05T12:19:19.380Z,53.00
2022-12-05T12:21:59.734Z,53.30
2022-12-05T12:24:26.406Z,53.20
2022-12-05T12:26:59.202Z,53.30
2022-12-05T12:29:25.783Z,53.30
2022-12-05T12:32:14.025Z,53.10
2022-12-05T12:34:49.580Z,52.90
2022-12-05T12:37:41.272Z,53.20
2022-12-05T12:40:26.783Z,53.20
2022-12-05T12:43:30.893Z,53.30
2022-12-05T12:46:14.689Z,53.30
2022-12-05T12:48:53.415Z,53.20
2022-12-05T12:51:20.013Z,53.10
2022-12-05T12:54:05.448Z,53.10
2022-12-05T12:56:38.805Z,53.10
2022-12-05T12:59:05.338Z,53.20
2022-12-05T13:01:37.699Z,53.20
2022-12-05T13:04:09.504Z,53.00
2022-12-05T13:06:56.351Z,53.20
2022-12-05T13:09:35.207Z,53.10
2022-12-05T13:12:05.051Z,53.20
2022-12-05T13:14:32.336Z,53.70
2022-12-05T13:16:59.755Z,53.10
2022-12-05T13:19:29.292Z,53.20
2022-12-05T13:21:57.278Z,53.30
2022-12-05T13:24:25.874Z,53.10
2022-12-05T13:26:52.731Z,53.00
2022-12-05T13:29:25.732Z,53.10
2022-12-05T13:31:53.011Z,53.00
2022-12-05T13:34:36.069Z,53.00
2022-12-05T13:37:29.087Z,53.20
2022-12-05T13:40:15.233Z,53.10
2022-12-05T13:42:43.060Z,53.10
2022-12-05T13:45:11.475Z,53.20
2022-12-05T13:47:47.069Z,53.80
2022-12-05T13:50:16.739Z,53.10
2022-12-05T13:52:48.752Z,53.20
2022-12-05T13:55:36.244Z,53.30
2022-12-05T13:58:23.238Z,53.30
2022-12-05T14:00:53.131Z,53.30
2022-12-05T14:03:34.876Z,53.40
2022-12-05T14:06:01.455Z,53.30
2022-12-05T14:08:31.439Z,53.40
2022-12-05T14:10:57.998Z,53.50
2022-12-05T14:13:25.270Z,53.50
2022-12-05T14:15:52.631Z,53.50
2022-12-05T14:18:22.259Z,53.30
2022-12-05T14:20:48.799Z,53.60
2022-12-05T14:23:35.186Z,53.30
2022-12-05T14:26:08.817Z,53.50
2022-12-05T14:28:42.907Z,53.60
2022-12-05T14:31:15.552Z,53.60
2022-12-05T14:33:42.498Z,53.60
2022-12-05T14:36:14.467Z,53.60
2022-12-05T14:38:41.907Z,53.60
2022-12-05T14:41:12.889Z,53.40
2022-12-05T14:43:40.774Z,53.60
2022-12-05T14:46:08.684Z,53.60
2022-12-05T14:48:48.698Z,53.00
2022-12-05T14:51:30.275Z,53.30
2022-12-05T14:54:03.073Z,53.30
2022-12-05T14:56:29.741Z,53.30
2022-12-05T14:58:59.580Z,53.30
2022-12-05T15:01:30.420Z,53.20
2022-12-05T15:03:56.984Z,53.20
2022-12-05T15:06:25.852Z,53.40
2022-12-05T15:08:55.316Z,53.30
2022-12-05T15:11:29.452Z,53.30
2022-12-05T15:14:08.320Z,53.30
2022-12-05T15:16:40.948Z,53.20
2022-12-05T15:19:11.698Z,53.30
2022-12-05T15:21:42.326Z,53.40
2022-12-05T15:24:13.360Z,53.40
2022-12-05T15:26:51.084Z,53.20
2022-12-05T15:29:20.789Z,53.60
2022-12-05T15:31:49.204Z,53.50
2022-12-05T15:34:20.256Z,53.30
2022-12-05T15:36:50.713Z,53.60
2022-12-05T15:39:26.117Z,53.70
2022-12-05T15:41:53.243Z,53.70
2022-12-05T15:44:25.398Z,53.50
2022-12-05T15:46:55.478Z,53.70
2022-12-05T15:49:26.300Z,53.60
2022-12-05T15:51:55.028Z,53.20
2022-12-05T15:54:29.066Z,53.30
2022-12-05T15:57:08.203Z,53.60
2022-12-05T15:59:44.579Z,53.60
2022-12-05T16:02:21.399Z,53.40
2022-12-05T16:04:56.670Z,53.70
2022-12-05T16:07:23.719Z,53.70
2022-12-05T16:09:50.364Z,53.50
2022-12-05T16:12:16.947Z,53.50
2022-12-05T16:15:00.456Z,53.80
2022-12-05T16:17:29.671Z,53.60
2022-12-05T16:20:10.114Z,53.40
2022-12-05T16:22:36.691Z,53.50
2022-12-05T16:25:12.451Z,53.70
2022-12-05T16:27:39.597Z,53.70
2022-12-05T16:30:12.602Z,53.50
2022-12-05T16:32:40.247Z,53.80
2022-12-05T16:35:25.800Z,54.60
2022-12-05T16:38:02.562Z,56.50
2022-12-05T16:40:29.155Z,58.50
2022-12-05T16:43:06.396Z,56.80
2022-12-05T16:45:43.698Z,55.60
2022-12-05T16:48:18.992Z,54.60
2022-12-05T16:50:45.883Z,54.20
2022-12-05T16:53:25.318Z,53.90
2022-12-05T16:55:53.545Z,54.00
2022-12-05T16:58:22.061Z,54.10
2022-12-05T17:00:48.852Z,54.10
2022-12-05T17:03:34.448Z,54.60
2022-12-05T17:06:02.218Z,54.60
2022-12-05T17:08:28.870Z,54.20
2022-12-05T17:10:55.676Z,54.40
2022-12-05T17:13:22.297Z,54.70
2022-12-05T17:15:49.093Z,54.50
2022-12-05T17:18:31.745Z,54.70
2022-12-05T17:24:29.194Z,54.80
2022-12-05T17:26:55.760Z,55.10
2022-12-05T17:29:22.946Z,55.60
2022-12-05T17:31:49.640Z,55.40
2022-12-05T17:34:17.525Z,55.30
2022-12-05T17:36:44.748Z,55.50
2022-12-05T17:39:11.555Z,55.40
2022-12-05T17:41:38.131Z,54.90
2022-12-05T17:44:05.096Z,55.10
2022-12-05T17:46:32.128Z,55.60
2022-12-05T17:48:58.818Z,55.70
2022-12-05T17:51:25.618Z,55.00
2022-12-05T17:53:53.062Z,55.40
2022-12-05T17:56:19.849Z,55.60
2022-12-05T17:58:46.818Z,55.70
2022-12-05T18:01:18.566Z,55.60
2022-12-05T18:03:45.410Z,55.50
2022-12-05T18:06:12.091Z,55.40
2022-12-05T18:08:44.046Z,55.70
2022-12-05T18:11:11.568Z,55.70
2022-12-05T18:13:38.418Z,55.80
2022-12-05T18:16:08.747Z,55.90
2022-12-05T18:18:35.572Z,55.60
2022-12-05T18:21:08.025Z,55.80
2022-12-05T18:23:35.355Z,55.90
2022-12-05T18:26:02.381Z,56.00
2022-12-05T18:28:29.029Z,56.50
2022-12-05T18:31:15.976Z,55.90
2022-12-05T18:33:45.944Z,56.40
2022-12-05T18:36:17.244Z,56.10
2022-12-05T18:38:48.901Z,56.60
2022-12-05T18:41:15.483Z,55.90
2022-12-05T18:43:42.087Z,55.70
2022-12-05T18:46:09.010Z,55.90
2022-12-05T18:48:41.592Z,56.10
2022-12-05T18:51:14.140Z,55.90
2022-12-05T18:53:42.255Z,56.40
2022-12-05T18:56:22.020Z,56.00
2022-12-05T18:58:52.911Z,56.00
2022-12-05T19:01:20.941Z,56.30
2022-12-05T19:03:47.750Z,56.80
2022-12-05T19:06:18.622Z,56.30
2022-12-05T19:08:45.701Z,55.90
2022-12-05T19:11:13.006Z,56.30
2022-12-05T19:13:39.771Z,56.50
2022-12-05T19:16:07.720Z,56.70
2022-12-05T19:18:34.380Z,56.10
2022-12-05T19:21:00.989Z,56.00
2022-12-05T19:23:27.537Z,56.20
2022-12-05T19:25:55.418Z,56.40
2022-12-05T19:28:22.039Z,56.10
2022-12-05T19:30:48.565Z,56.20
2022-12-05T19:33:15.123Z,56.20
2022-12-05T19:35:41.681Z,56.40
2022-12-05T19:38:08.285Z,56.10
2022-12-05T19:40:34.856Z,56.10
2022-12-05T19:43:01.490Z,56.20
2022-12-05T19:45:28.140Z,56.00
2022-12-05T19:47:54.820Z,55.80
2022-12-05T19:50:21.429Z,55.80
2022-12-05T19:52:48.037Z,55.80
2022-12-05T19:55:14.626Z,55.70
2022-12-05T19:57:41.219Z,57.00
2022-12-05T20:00:08.177Z,56.30
2022-12-05T20:02:38.440Z,56.20
2022-12-05T20:05:06.937Z,55.80
2022-12-05T20:07:33.543Z,56.20
2022-12-05T20:10:00.411Z,55.80
2022-12-05T20:12:27.287Z,55.90
2022-12-05T20:14:53.849Z,55.60
2022-12-05T20:17:21.601Z,55.90
2022-12-05T20:19:48.210Z,56.00
2022-12-05T20:22:14.780Z,56.20
2022-12-05T20:24:41.386Z,55.70
2022-12-05T20:27:08.096Z,55.90
2022-12-05T20:29:35.243Z,55.80
2022-12-05T20:32:01.877Z,55.70
2022-12-05T20:34:28.421Z,56.00
2022-12-05T20:36:55.057Z,55.90
2022-12-05T20:39:21.676Z,55.90
2022-12-05T20:41:48.950Z,55.60
2022-12-05T20:44:16.116Z,55.90
2022-12-05T20:46:42.768Z,55.90
2022-12-05T20:49:09.429Z,55.60
2022-12-05T20:51:36.057Z,56.00
2022-12-05T20:54:03.627Z,55.90
2022-12-05T20:56:31.676Z,56.10
2022-12-05T20:59:00.163Z,56.20
2022-12-05T21:01:27.814Z,56.00
2022-12-05T21:03:54.761Z,56.30
2022-12-05T21:06:25.721Z,56.10
2022-12-05T21:08:53.113Z,56.30
2022-12-05T21:11:20.202Z,56.30
2022-12-05T21:13:46.847Z,56.30
2022-12-05T21:16:14.772Z,56.60
2022-12-05T21:18:41.457Z,56.60
2022-12-05T21:21:15.772Z,56.40
2022-12-05T21:23:43.076Z,56.60
2022-12-05T21:26:14.002Z,56.60
2022-12-05T21:28:41.387Z,57.30
2022-12-05T21:31:09.282Z,56.60
2022-12-05T21:33:36.024Z,56.60
2022-12-05T21:36:02.899Z,56.70
2022-12-05T21:38:29.599Z,56.30
2022-12-05T21:40:56.304Z,56.60
2022-12-05T21:43:22.882Z,56.60
2022-12-05T21:45:55.763Z,56.90
2022-12-05T21:48:22.916Z,56.50
2022-12-05T21:50:49.819Z,56.60
2022-12-05T21:53:16.872Z,56.60
2022-12-05T21:55:43.451Z,56.70
2022-12-05T21:58:10.337Z,56.60
2022-12-05T22:00:37.406Z,56.60
2022-12-05T22:03:04.458Z,56.60
2022-12-05T22:05:31.527Z,56.60
2022-12-05T22:08:01.313Z,56.40
2022-12-05T22:10:33.119Z,56.60
2022-12-05T22:12:59.854Z,56.60
2022-12-05T22:15:26.393Z,55.80
2022-12-05T22:17:52.991Z,55.60
2022-12-05T22:20:19.555Z,55.50
2022-12-05T22:22:46.191Z,56.30
2022-12-05T22:25:12.771Z,56.10
2022-12-05T22:27:39.364Z,55.80
2022-12-05T22:30:06.343Z,55.70
2022-12-05T22:32:32.894Z,55.70
2022-12-05T22:35:03.736Z,55.90
2022-12-05T22:37:30.696Z,57.00
2022-12-05T22:39:57.724Z,56.60
2022-12-05T22:42:25.919Z,56.40
2022-12-05T22:44:52.479Z,56.80
2022-12-05T22:47:19.034Z,57.40
2022-12-05T22:49:45.766Z,56.80
2022-12-05T22:52:12.327Z,57.20
2022-12-05T22:54:39.175Z,56.60
2022-12-05T22:57:05.749Z,56.60
2022-12-05T22:59:34.150Z,56.70
2022-12-05T23:02:00.690Z,56.50
2022-12-05T23:04:27.303Z,56.40
2022-12-05T23:06:54.049Z,56.40
2022-12-05T23:09:20.973Z,56.80
2022-12-05T23:11:48.917Z,56.50
2022-12-05T23:14:15.533Z,56.20
2022-12-05T23:16:42.145Z,56.60
2022-12-05T23:19:08.936Z,56.60
2022-12-05T23:21:37.032Z,56.50
2022-12-05T23:24:05.171Z,56.60
2022-12-05T23:26:33.887Z,56.60
2022-12-05T23:29:00.551Z,56.70
2022-12-05T23:31:27.336Z,56.60
2022-12-05T23:33:57.245Z,56.80
2022-12-05T23:36:28.035Z,57.00
2022-12-05T23:38:54.740Z,56.50
2022-12-05T23:41:22.539Z,56.60
2022-12-05T23:43:49.887Z,56.60
2022-12-05T23:46:17.657Z,56.50
2022-12-05T23:48:44.668Z,56.50
2022-12-05T23:51:12.789Z,56.50
2022-12-05T23:53:40.504Z,56.60
2022-12-05T23:56:18.279Z,56.70
2022-12-05T23:58:45.416Z,56.50
